Time;durP1;ratioP1;P1;durP2;ratioP2;P2;SDS_P1;SDS_P2;PMS_P1;PMS_P2;Temp;Humidity;BMP_temperature;BMP_pressure;BME280_temperature;BME280_humidity;BME280_pressure;Samples;Min_cycle;Max_cycle;Signal;HPM_P1;HPM_P2
2021/11/17 02:27:19;;;;;;;;;;;6.20;99.90;;;;;;5094533;28;19969;-76
2021/11/17 02:30:14;;;;;;;;;;;6.20;99.90;;;;;;5094400;28;19920;-76
2021/11/17 02:32:46;;;;;;;;;;;6.10;99.90;;;;;;5032464;28;19941;-76
2021/11/17 02:35:12;;;;;;;;;;;6.20;99.90;;;;;;5090662;28;19915;-76
2021/11/17 02:37:45;;;;;;;;;;;6.10;99.90;;;;;;5086510;28;20011;-76
2021/11/17 02:40:10;;;;;;;;;;;6.20;99.90;;;;;;5088648;28;19920;-76
2021/11/17 02:42:45;;;;;;;;;;;6.20;99.90;;;;;;5091113;28;19919;-76
2021/11/17 02:45:29;;;;;;;;;;;6.20;99.90;;;;;;5088603;28;20239;-85
2021/11/17 02:48:24;;;;;;;;;;;6.20;99.90;;;;;;5089564;28;19923;-84
2021/11/17 02:51:08;;;;;;;;;;;6.20;99.90;;;;;;5086979;28;19919;-76
2021/11/17 02:53:40;;;;;;;;;;;6.20;99.90;;;;;;5093947;28;19927;-77
2021/11/17 02:56:12;;;;;;;;;;;6.20;99.90;;;;;;5089222;28;19912;-77
2021/11/17 02:58:47;;;;;;;;;;;6.20;99.90;;;;;;5091659;28;19920;-76
2021/11/17 03:01:21;;;;;;;;;;;6.20;99.90;;;;;;5089770;28;20209;-79
2021/11/17 03:03:47;;;;;;;;;;;6.20;99.90;;;;;;5093283;28;19912;-76
2021/11/17 03:06:13;;;;;;;;;;;6.20;99.90;;;;;;5084773;28;19924;-76
2021/11/17 03:08:38;;;;;;;;;;;6.20;99.90;;;;;;5089552;28;19920;-77
2021/11/17 03:11:13;;;;;;;;;;;6.20;99.90;;;;;;5089110;28;19942;-76
2021/11/17 03:13:38;;;;;;;;;;;6.30;99.90;;;;;;5104904;28;19969;-78
2021/11/17 03:16:09;;;;;;;;;;;6.30;99.90;;;;;;5085731;28;19912;-76
2021/11/17 03:18:36;;;;;;;;;;;6.30;99.90;;;;;;5089673;28;19920;-76
2021/11/17 03:21:20;;;;;;;;;;;6.30;99.90;;;;;;5094280;28;19912;-85
2021/11/17 03:23:55;;;;;;;;;;;6.30;99.90;;;;;;5087757;28;19916;-77
2021/11/17 03:26:47;;;;;;;;;;;6.30;99.90;;;;;;5089519;28;20283;-76
2021/11/17 03:29:12;;;;;;;;;;;6.30;99.90;;;;;;5081455;28;20015;-76
2021/11/17 03:31:58;;;;;;;;;;;6.30;99.90;;;;;;5089640;28;19940;-76
2021/11/17 03:34:33;;;;;;;;;;;6.30;99.90;;;;;;5070593;28;19919;-77
2021/11/17 03:37:02;;;;;;;;;;;6.30;99.90;;;;;;5095954;28;19969;-86
2021/11/17 03:39:35;;;;;;;;;;;6.30;99.90;;;;;;5093076;28;19912;-77
2021/11/17 03:42:03;;;;;;;;;;;6.30;99.90;;;;;;5077577;28;19955;-86
2021/11/17 03:44:29;;;;;;;;;;;6.30;99.90;;;;;;5096367;28;19912;-76
2021/11/17 03:47:13;;;;;;;;;;;6.30;99.90;;;;;;5096823;28;19939;-76
2021/11/17 03:49:51;;;;;;;;;;;6.30;99.90;;;;;;5095583;28;19923;-76
2021/11/17 03:52:29;;;;;;;;;;;6.40;99.90;;;;;;5088918;28;20287;-76
2021/11/17 03:55:10;;;;;;;;;;;6.30;99.90;;;;;;5093131;28;19919;-76
2021/11/17 03:57:58;;;;;;;;;;;6.40;99.90;;;;;;5079475;28;19912;-76
2021/11/17 04:00:24;;;;;;;;;;;6.30;99.90;;;;;;5097722;28;19920;-76
2021/11/17 04:02:52;;;;;;;;;;;6.30;99.90;;;;;;5096814;28;19912;-76
2021/11/17 04:05:21;;;;;;;;;;;6.30;99.90;;;;;;5098027;28;19966;-88
2021/11/17 04:07:53;;;;;;;;;;;6.30;99.90;;;;;;5096999;28;19963;-76
2021/11/17 04:10:32;;;;;;;;;;;6.30;99.90;;;;;;5085065;28;20275;-76
2021/11/17 04:13:13;;;;;;;;;;;6.30;99.90;;;;;;5094048;28;19916;-85
2021/11/17 04:15:51;;;;;;;;;;;6.20;99.90;;;;;;5083318;28;19912;-77
2021/11/17 04:18:24;;;;;;;;;;;6.20;99.90;;;;;;5113577;28;20206;-76
2021/11/17 04:21:00;;;;;;;;;;;6.20;99.90;;;;;;5092974;28;19943;-76
2021/11/17 04:23:28;;;;;;;;;;;6.20;99.90;;;;;;5085343;28;19951;-86
2021/11/17 04:25:54;;;;;;;;;;;6.20;99.90;;;;;;5095581;28;20300;-76
2021/11/17 04:28:19;;;;;;;;;;;6.20;99.90;;;;;;5097611;28;19999;-76
2021/11/17 04:30:50;;;;;;;;;;;6.20;99.90;;;;;;5096935;28;19955;-75
2021/11/17 04:33:28;;;;;;;;;;;6.30;99.90;;;;;;5092252;28;20014;-76
2021/11/17 04:36:26;;;;;;;;;;;6.30;99.90;;;;;;5094813;28;20028;-76
2021/11/17 04:38:57;;;;;;;;;;;6.40;99.90;;;;;;5066876;28;19928;-76
2021/11/17 04:41:23;;;;;;;;;;;6.40;99.90;;;;;;5090236;28;19924;-76
2021/11/17 04:44:01;;;;;;;;;;;6.40;99.90;;;;;;5093962;28;19957;-77
2021/11/17 04:46:26;;;;;;;;;;;6.40;99.90;;;;;;5094295;28;20031;-87
2021/11/17 04:49:14;;;;;;;;;;;6.40;99.90;;;;;;5090968;28;20011;-76
2021/11/17 04:51:43;;;;;;;;;;;6.40;99.90;;;;;;5075240;28;19942;-76
2021/11/17 04:54:18;;;;;;;;;;;6.40;99.90;;;;;;5089968;28;19916;-76
2021/11/17 04:56:49;;;;;;;;;;;6.40;99.90;;;;;;5096344;28;19916;-76
2021/11/17 04:59:21;;;;;;;;;;;6.50;99.90;;;;;;5095994;28;19927;-76
2021/11/17 05:02:12;;;;;;;;;;;6.50;99.90;;;;;;5089500;28;19920;-77
2021/11/17 05:04:43;;;;;;;;;;;6.50;99.90;;;;;;5085125;28;20023;-76
2021/11/17 05:07:18;;;;;;;;;;;6.50;99.90;;;;;;5095857;28;19916;-76
2021/11/17 05:09:55;;;;;;;;;;;6.50;99.90;;;;;;5094826;28;19920;-77
2021/11/17 05:12:40;;;;;;;;;;;6.50;99.90;;;;;;5088165;28;19919;-76
2021/11/17 05:15:25;;;;;;;;;;;6.50;99.90;;;;;;5094870;28;19912;-76
2021/11/17 05:18:09;;;;;;;;;;;6.50;99.90;;;;;;5078443;28;19934;-84
2021/11/17 05:20:41;;;;;;;;;;;6.50;99.90;;;;;;5090416;28;20284;-76
2021/11/17 05:23:07;;;;;;;;;;;6.50;99.90;;;;;;5074845;28;19911;-76
2021/11/17 05:25:50;;;;;;;;;;;6.50;99.90;;;;;;5077433;28;19935;-77
2021/11/17 05:28:31;;;;;;;;;;;6.50;99.90;;;;;;5093514;28;19920;-77
2021/11/17 05:31:24;;;;;;;;;;;6.60;99.90;;;;;;5071836;28;19920;-81
2021/11/17 05:33:53;;;;;;;;;;;6.60;99.90;;;;;;5092342;28;20325;-77
2021/11/17 05:36:25;;;;;;;;;;;6.60;99.90;;;;;;5093990;28;19934;-82
2021/11/17 05:39:06;;;;;;;;;;;6.60;99.90;;;;;;5090179;28;20000;-76
2021/11/17 05:41:44;;;;;;;;;;;6.60;99.90;;;;;;5094646;28;19912;-77
2021/11/17 05:44:16;;;;;;;;;;;6.60;99.90;;;;;;5084896;28;19935;-77
2021/11/17 05:46:48;;;;;;;;;;;6.60;99.90;;;;;;5091960;28;19923;-76
2021/11/17 05:49:32;;;;;;;;;;;6.60;99.90;;;;;;5092879;28;20228;-78
2021/11/17 05:52:00;;;;;;;;;;;6.60;99.90;;;;;;5086557;28;19912;-84
2021/11/17 05:54:35;;;;;;;;;;;6.60;99.90;;;;;;5088050;28;19919;-76
2021/11/17 05:57:00;;;;;;;;;;;6.60;99.90;;;;;;5110104;28;19916;-83
2021/11/17 05:59:29;;;;;;;;;;;6.60;99.90;;;;;;5093686;28;19964;-76
2021/11/17 06:02:11;;;;;;;;;;;6.70;99.90;;;;;;5094301;28;19912;-76
2021/11/17 06:04:36;;;;;;;;;;;6.60;99.90;;;;;;5090907;28;19916;-76
2021/11/17 06:07:02;;;;;;;;;;;6.70;99.90;;;;;;5091135;28;19924;-87
2021/11/17 06:09:27;;;;;;;;;;;6.60;99.90;;;;;;5092448;28;19912;-76
2021/11/17 06:12:12;;;;;;;;;;;6.70;99.90;;;;;;5093349;28;20207;-76
2021/11/17 06:14:42;;;;;;;;;;;6.70;99.90;;;;;;5092877;28;20321;-76
2021/11/17 06:17:10;;;;;;;;;;;6.60;99.90;;;;;;5091386;28;19916;-77
2021/11/17 06:19:38;;;;;;;;;;;6.70;99.90;;;;;;5093911;28;19924;-76
2021/11/17 06:22:05;;;;;;;;;;;6.70;99.90;;;;;;5092527;28;19912;-78
2021/11/17 06:24:32;;;;;;;;;;;6.70;99.90;;;;;;5084161;28;20415;-76
2021/11/17 06:26:58;;;;;;;;;;;6.70;99.90;;;;;;5108936;28;20002;-84
2021/11/17 06:29:25;;;;;;;;;;;6.70;99.90;;;;;;5081954;28;19999;-76
2021/11/17 06:31:52;;;;;;;;;;;6.70;99.90;;;;;;5093690;28;19956;-76
2021/11/17 06:34:25;;;;;;;;;;;6.70;99.90;;;;;;5089456;28;19912;-75
2021/11/17 06:36:51;;;;;;;;;;;6.70;99.90;;;;;;5094180;28;20229;-83
2021/11/17 06:39:16;;;;;;;;;;;6.70;99.90;;;;;;5093380;28;19916;-75
2021/11/17 06:41:42;;;;;;;;;;;6.70;99.90;;;;;;5093280;28;19912;-75
2021/11/17 06:44:07;;;;;;;;;;;6.80;99.90;;;;;;5092425;28;19915;-76
2021/11/17 06:46:33;;;;;;;;;;;6.80;99.90;;;;;;5093375;28;19924;-76
2021/11/17 06:48:58;;;;;;;;;;;6.80;99.90;;;;;;5107487;28;19938;-81
2021/11/17 06:51:24;;;;;;;;;;;6.80;99.90;;;;;;5093820;28;19924;-76
2021/11/17 06:53:50;;;;;;;;;;;6.80;99.90;;;;;;5093313;28;20306;-76
2021/11/17 06:56:18;;;;;;;;;;;6.90;99.90;;;;;;5092946;28;19920;-76
2021/11/17 06:58:44;;;;;;;;;;;6.90;99.90;;;;;;5091555;28;19920;-76
2021/11/17 07:01:11;;;;;;;;;;;6.90;99.90;;;;;;5091392;28;19912;-76
2021/11/17 07:03:37;;;;;;;;;;;6.90;99.90;;;;;;5091952;28;19959;-76
2021/11/17 07:06:03;;;;;;;;;;;6.90;99.90;;;;;;5090482;28;19955;-84
2021/11/17 07:08:28;;;;;;;;;;;6.90;99.90;;;;;;5092852;28;19995;-76
2021/11/17 07:10:54;;;;;;;;;;;7.00;99.90;;;;;;5092653;28;19966;-76
2021/11/17 07:13:20;;;;;;;;;;;7.00;99.90;;;;;;5088175;28;20344;-76
2021/11/17 07:15:46;;;;;;;;;;;7.00;99.90;;;;;;5090955;28;20002;-76
2021/11/17 07:18:11;;;;;;;;;;;7.10;99.90;;;;;;5093011;28;19912;-76
2021/11/17 07:20:37;;;;;;;;;;;7.10;99.90;;;;;;5093727;28;19912;-76
2021/11/17 07:23:04;;;;;;;;;;;7.10;99.90;;;;;;5092881;28;19927;-77
2021/11/17 07:25:30;;;;;;;;;;;7.10;99.90;;;;;;5094592;28;20222;-76
2021/11/17 07:27:57;;;;;;;;;;;7.10;99.90;;;;;;5093011;28;19916;-76
2021/11/17 07:30:24;;;;;;;;;;;7.10;99.90;;;;;;5075762;28;19935;-75
2021/11/17 07:32:50;;;;;;;;;;;7.20;99.90;;;;;;5079376;28;19912;-75
2021/11/17 07:35:16;;;;;;;;;;;7.20;99.90;;;;;;5031496;28;19919;-76
2021/11/17 07:37:41;;;;;;;;;;;7.20;99.90;;;;;;5093115;28;20261;-82
2021/11/17 07:40:08;;;;;;;;;;;7.30;99.90;;;;;;5088757;28;19927;-76
2021/11/17 07:42:34;;;;;;;;;;;7.30;99.90;;;;;;5086032;28;19916;-76
2021/11/17 07:45:00;;;;;;;;;;;7.30;99.90;;;;;;5091162;28;19919;-83
2021/11/17 07:47:25;;;;;;;;;;;7.30;99.90;;;;;;5086363;28;19924;-76
2021/11/17 07:49:51;;;;;;;;;;;7.30;99.90;;;;;;5086391;28;19912;-81
2021/11/17 07:52:16;;;;;;;;;;;7.30;99.90;;;;;;5091448;28;20215;-76
2021/11/17 07:54:42;;;;;;;;;;;7.30;99.90;;;;;;5089509;28;19916;-82
2021/11/17 07:57:08;;;;;;;;;;;7.30;99.90;;;;;;5091645;28;20421;-75
2021/11/17 07:59:36;;;;;;;;;;;7.40;99.90;;;;;;5087931;28;19913;-77
2021/11/17 08:02:07;;;;;;;;;;;7.40;99.90;;;;;;5089359;28;19920;-78
2021/11/17 08:04:34;;;;;;;;;;;7.40;99.90;;;;;;5091390;28;19916;-76
2021/11/17 08:07:01;;;;;;;;;;;7.40;99.90;;;;;;5090393;28;19920;-77
2021/11/17 08:09:27;;;;;;;;;;;7.50;99.90;;;;;;5092076;28;19912;-76
2021/11/17 08:11:53;;;;;;;;;;;7.50;99.90;;;;;;5086658;28;20260;-83
2021/11/17 08:14:18;;;;;;;;;;;7.50;99.90;;;;;;5091070;28;19969;-76
2021/11/17 08:16:44;;;;;;;;;;;7.50;99.90;;;;;;5092646;28;20027;-76
2021/11/17 08:19:10;;;;;;;;;;;7.60;99.90;;;;;;5087607;28;19962;-76
2021/11/17 08:21:36;;;;;;;;;;;7.60;99.90;;;;;;5088490;28;20642;-76
2021/11/17 08:24:02;;;;;;;;;;;7.60;99.90;;;;;;5093326;28;19939;-82
2021/11/17 08:26:28;;;;;;;;;;;7.70;99.90;;;;;;5092772;28;20031;-76
2021/11/17 08:28:54;;;;;;;;;;;7.70;99.90;;;;;;5093507;28;19920;-75
2021/11/17 08:31:24;;;;;;;;;;;7.70;99.90;;;;;;5087311;28;19966;-76
2021/11/17 08:33:50;;;;;;;;;;;7.80;99.90;;;;;;5077679;28;19920;-75
2021/11/17 08:36:16;;;;;;;;;;;7.80;99.90;;;;;;5088903;28;19916;-76
2021/11/17 08:38:41;;;;;;;;;;;7.90;99.90;;;;;;5090697;28;19930;-75
2021/11/17 08:41:09;;;;;;;;;;;7.90;99.90;;;;;;5080321;28;19981;-76
2021/11/17 08:43:35;;;;;;;;;;;8.00;99.90;;;;;;5088681;28;19916;-76
2021/11/17 08:46:00;;;;;;;;;;;8.10;99.90;;;;;;5090704;28;19939;-77
2021/11/17 08:48:28;;;;;;;;;;;8.20;99.90;;;;;;5092850;28;21197;-76
2021/11/17 08:50:56;;;;;;;;;;;8.20;99.90;;;;;;5089093;28;19926;-76
2021/11/17 08:53:24;;;;;;;;;;;8.30;99.90;;;;;;5091095;28;19920;-76
2021/11/17 08:55:50;;;;;;;;;;;8.30;99.90;;;;;;5091056;28;19943;-76
2021/11/17 08:58:17;;;;;;;;;;;8.20;99.90;;;;;;5087550;28;19920;-76
2021/11/17 09:00:43;;;;;;;;;;;8.30;99.90;;;;;;5062824;27;19923;-76
2021/11/17 09:03:09;;;;;;;;;;;8.30;99.90;;;;;;5108701;27;20007;-80
2021/11/17 09:05:37;;;;;;;;;;;8.30;99.90;;;;;;5088657;28;20306;-75
2021/11/17 09:08:03;;;;;;;;;;;8.40;99.90;;;;;;5091990;28;19926;-76
2021/11/17 09:10:30;;;;;;;;;;;8.50;99.90;;;;;;5090918;28;19916;-76
2021/11/17 09:12:56;;;;;;;;;;;8.60;99.90;;;;;;5093517;28;19927;-76
2021/11/17 09:15:22;;;;;;;;;;;8.70;99.90;;;;;;5090828;28;19920;-76
2021/11/17 09:17:48;;;;;;;;;;;8.80;99.90;;;;;;5086879;28;19922;-76
2021/11/17 09:20:15;;;;;;;;;;;8.90;99.90;;;;;;5083934;28;19915;-76
2021/11/17 09:22:41;;;;;;;;;;;9.00;99.90;;;;;;5086304;28;19924;-76
2021/11/17 09:25:07;;;;;;;;;;;9.10;99.90;;;;;;5090873;28;19930;-76
2021/11/17 09:27:33;;;;;;;;;;;9.20;99.90;;;;;;5106085;28;20389;-76
2021/11/17 09:29:59;;;;;;;;;;;9.20;99.90;;;;;;5089884;28;19920;-77
2021/11/17 09:32:25;;;;;;;;;;;9.30;99.90;;;;;;5092752;28;19916;-76
2021/11/17 09:34:50;;;;;;;;;;;9.30;99.90;;;;;;5087417;28;19922;-77
2021/11/17 09:37:16;;;;;;;;;;;9.40;99.90;;;;;;5091820;28;19924;-76
2021/11/17 09:39:46;;;;;;;;;;;9.30;99.90;;;;;;5089737;28;19920;-77
2021/11/17 09:42:12;;;;;;;;;;;9.40;99.90;;;;;;5076133;28;20492;-77
2021/11/17 09:44:40;;;;;;;;;;;9.40;99.90;;;;;;5080693;28;19998;-78
2021/11/17 09:47:09;;;;;;;;;;;9.40;99.90;;;;;;5086390;28;19920;-77
2021/11/17 09:49:41;;;;;;;;;;;9.40;99.90;;;;;;5087526;28;19912;-77
2021/11/17 09:52:09;;;;;;;;;;;9.40;99.90;;;;;;5093780;28;19923;-76
2021/11/17 09:54:35;;;;;;;;;;;9.40;99.90;;;;;;5094725;28;19922;-77
2021/11/17 09:57:03;;;;;;;;;;;9.50;99.90;;;;;;5087937;28;20190;-77
2021/11/17 09:59:49;;;;;;;;;;;9.50;99.90;;;;;;5088845;28;20222;-76
2021/11/17 10:02:20;;;;;;;;;;;9.50;99.90;;;;;;5091099;28;19912;-77
2021/11/17 10:05:05;;;;;;;;;;;9.60;99.90;;;;;;5092836;28;21040;-76
2021/11/17 10:15:25;;;;;;;;;;;9.80;99.90;;;;;;5088894;28;19927;-77
2021/11/17 10:17:54;;;;;;;;;;;10.00;99.90;;;;;;5090778;28;20074;-81
2021/11/17 10:20:22;;;;;;;;;;;10.00;99.90;;;;;;5089241;28;20210;-77
2021/11/17 10:22:50;;;;;;;;;;;10.10;99.90;;;;;;5092468;28;20203;-77
2021/11/17 10:25:22;;;;;;;;;;;10.10;99.90;;;;;;5090714;28;20053;-76
2021/11/17 10:27:58;;;;;;;;;;;10.10;99.90;;;;;;5087591;28;19999;-76
2021/11/17 10:30:34;;;;;;;;;;;10.30;99.90;;;;;;5088271;28;19920;-76
2021/11/17 10:33:04;;;;;;;;;;;10.40;99.90;;;;;;5089285;28;19971;-76
2021/11/17 10:35:32;;;;;;;;;;;10.50;99.90;;;;;;5083563;28;19920;-76
2021/11/17 10:38:11;;;;;;;;;;;10.60;99.90;;;;;;5092293;28;19934;-83
2021/11/17 10:40:46;;;;;;;;;;;10.70;99.90;;;;;;5098121;28;20006;-76
2021/11/17 10:43:18;;;;;;;;;;;10.70;99.90;;;;;;5077186;28;19977;-77
2021/11/17 10:45:46;;;;;;;;;;;10.80;99.90;;;;;;5077798;28;21409;-76
2021/11/17 10:48:23;;;;;;;;;;;10.80;99.90;;;;;;5087276;28;19959;-76
2021/11/17 10:50:49;;;;;;;;;;;10.80;99.90;;;;;;5084925;28;19943;-76
2021/11/17 10:53:29;;;;;;;;;;;10.90;99.90;;;;;;5091002;28;19966;-77
2021/11/17 10:55:55;;;;;;;;;;;10.80;99.90;;;;;;5088790;28;19916;-76
2021/11/17 10:58:26;;;;;;;;;;;10.90;99.90;;;;;;5088417;28;19920;-77
2021/11/17 11:00:53;;;;;;;;;;;10.80;99.90;;;;;;5088665;28;19923;-77
2021/11/17 11:03:20;;;;;;;;;;;10.80;99.90;;;;;;5082599;28;19927;-77
2021/11/17 11:06:06;;;;;;;;;;;10.80;99.90;;;;;;5083446;28;20393;-76
2021/11/17 11:08:35;;;;;;;;;;;10.90;99.90;;;;;;5089235;28;19920;-77
2021/11/17 11:11:02;;;;;;;;;;;10.90;99.90;;;;;;5085238;28;19965;-76
2021/11/17 11:13:37;;;;;;;;;;;10.90;99.90;;;;;;5087503;28;19920;-77
2021/11/17 11:16:22;;;;;;;;;;;10.80;99.90;;;;;;5084995;28;19922;-75
2021/11/17 11:18:52;;;;;;;;;;;10.70;99.90;;;;;;5090631;28;19923;-76
2021/11/17 11:21:36;;;;;;;;;;;10.50;99.90;;;;;;5087350;28;19920;-75
2021/11/17 11:24:20;;;;;;;;;;;10.40;99.90;;;;;;5092134;28;19920;-75
2021/11/17 11:26:58;;;;;;;;;;;10.40;99.90;;;;;;5088101;28;20239;-76
2021/11/17 11:29:44;;;;;;;;;;;10.40;99.90;;;;;;5086702;28;20023;-77
2021/11/17 11:32:09;;;;;;;;;;;10.40;99.90;;;;;;5088930;28;19916;-76
2021/11/17 11:34:44;;;;;;;;;;;10.40;99.90;;;;;;5088368;28;19927;-76
2021/11/17 11:37:30;;;;;;;;;;;10.40;99.90;;;;;;5086972;28;19920;-75
2021/11/17 11:39:55;;;;;;;;;;;10.40;99.90;;;;;;5058865;28;19921;-76
2021/11/17 11:42:21;;;;;;;;;;;10.50;99.90;;;;;;5087530;28;20309;-84
2021/11/17 11:44:47;;;;;;;;;;;10.50;99.90;;;;;;5083113;28;19916;-76
2021/11/17 11:47:12;;;;;;;;;;;10.60;99.90;;;;;;5064693;28;19924;-76
2021/11/17 11:49:41;;;;;;;;;;;10.60;99.90;;;;;;5088738;28;19916;-76
2021/11/17 11:52:09;;;;;;;;;;;10.70;99.90;;;;;;5087132;28;19920;-76
2021/11/17 11:54:55;;;;;;;;;;;10.90;99.90;;;;;;5092719;28;19916;-76
2021/11/17 11:57:21;;;;;;;;;;;11.00;99.90;;;;;;5092403;28;19948;-76
2021/11/17 11:59:47;;;;;;;;;;;11.30;99.90;;;;;;5093991;28;19966;-76
2021/11/17 12:02:14;;;;;;;;;;;11.70;99.90;;;;;;5092682;28;19920;-76
2021/11/17 12:04:41;;;;;;;;;;;11.80;99.90;;;;;;5086973;28;20003;-83
2021/11/17 12:07:10;;;;;;;;;;;11.80;99.90;;;;;;5088275;28;19928;-76
2021/11/17 12:09:38;;;;;;;;;;;11.90;99.90;;;;;;5087932;28;19925;-76
2021/11/17 12:12:17;;;;;;;;;;;12.00;99.90;;;;;;5091711;28;19916;-77
2021/11/17 12:14:47;;;;;;;;;;;12.00;99.90;;;;;;5090940;28;20530;-76
2021/11/17 12:17:18;;;;;;;;;;;12.10;99.90;;;;;;5091647;28;20310;-76
2021/11/17 12:19:49;;;;;;;;;;;12.30;99.90;;;;;;5088550;28;19920;-86
2021/11/17 12:22:34;;;;;;;;;;;12.40;99.90;;;;;;5090185;28;19962;-76
2021/11/17 12:25:16;;;;;;;;;;;12.30;99.90;;;;;;5091073;28;19920;-83
2021/11/17 12:27:42;;;;;;;;;;;12.20;99.90;;;;;;5089642;28;19931;-77
2021/11/17 12:30:12;;;;;;;;;;;12.30;99.90;;;;;;5105394;28;19916;-76
2021/11/17 12:32:48;;;;;;;;;;;12.40;99.90;;;;;;5092539;28;19923;-76
2021/11/17 12:35:14;;;;;;;;;;;12.30;99.90;;;;;;5091847;28;20325;-76
2021/11/17 12:37:57;;;;;;;;;;;12.20;99.90;;;;;;5094419;28;20015;-76
2021/11/17 12:40:28;;;;;;;;;;;12.10;99.90;;;;;;5096400;28;19917;-76
2021/11/17 12:42:55;;;;;;;;;;;12.10;99.90;;;;;;5088487;28;20516;-76
2021/11/17 12:45:23;;;;;;;;;;;12.00;99.90;;;;;;5092882;28;19918;-76
2021/11/17 12:47:52;;;;;;;;;;;11.90;99.90;;;;;;5079594;28;19927;-76
2021/11/17 12:50:33;;;;;;;;;;;11.90;99.90;;;;;;5092081;28;20322;-77
2021/11/17 12:53:02;;;;;;;;;;;11.80;99.90;;;;;;5089444;28;21019;-76
2021/11/17 12:55:36;;;;;;;;;;;11.90;99.90;;;;;;5093759;28;19945;-76
2021/11/17 12:58:09;;;;;;;;;;;12.00;99.90;;;;;;5075617;28;19912;-91
2021/11/17 13:00:38;;;;;;;;;;;12.00;99.90;;;;;;5092981;28;20330;-78
2021/11/17 13:03:05;;;;;;;;;;;11.90;99.90;;;;;;5088828;28;19924;-77
2021/11/17 13:05:45;;;;;;;;;;;11.60;99.90;;;;;;5089374;28;20028;-86
2021/11/17 13:08:13;;;;;;;;;;;11.40;99.90;;;;;;5093631;28;20359;-76
2021/11/17 13:10:44;;;;;;;;;;;11.30;99.90;;;;;;5087934;28;19927;-77
2021/11/17 13:13:18;;;;;;;;;;;11.30;99.90;;;;;;5092751;28;20377;-77
2021/11/17 13:15:53;;;;;;;;;;;11.30;99.90;;;;;;5092462;28;19920;-84
2021/11/17 13:18:26;;;;;;;;;;;11.20;99.90;;;;;;5088445;28;20298;-75
2021/11/17 13:21:05;;;;;;;;;;;11.10;99.90;;;;;;5090028;28;19916;-76
2021/11/17 13:23:33;;;;;;;;;;;11.10;99.90;;;;;;5087168;28;19920;-75
2021/11/17 13:26:10;;;;;;;;;;;11.10;99.90;;;;;;5092212;28;19920;-77
2021/11/17 13:28:39;;;;;;;;;;;11.10;99.90;;;;;;5087802;28;19928;-76
2021/11/17 13:31:23;;;;;;;;;;;11.10;99.90;;;;;;5089568;28;20023;-76
2021/11/17 13:34:18;;;;;;;;;;;11.10;99.90;;;;;;5090925;28;19920;-76
2021/11/17 13:36:49;;;;;;;;;;;11.00;99.90;;;;;;5079571;28;19920;-75
2021/11/17 13:39:16;;;;;;;;;;;11.00;99.90;;;;;;5091651;28;19915;-75
2021/11/17 13:41:44;;;;;;;;;;;11.00;99.90;;;;;;5089961;28;19951;-75
2021/11/17 13:44:10;;;;;;;;;;;11.00;99.90;;;;;;5086232;28;19943;-76
2021/11/17 13:46:36;;;;;;;;;;;10.90;99.90;;;;;;5087343;28;20315;-76
2021/11/17 13:49:02;;;;;;;;;;;11.00;99.90;;;;;;5091447;28;19923;-75
2021/11/17 13:51:28;;;;;;;;;;;10.90;99.90;;;;;;5091573;28;20372;-75
2021/11/17 13:53:55;;;;;;;;;;;10.90;99.90;;;;;;5089546;28;19921;-75
2021/11/17 13:56:25;;;;;;;;;;;10.90;99.90;;;;;;5087424;28;19926;-86
2021/11/17 13:58:52;;;;;;;;;;;11.00;99.90;;;;;;5060064;28;19922;-75
2021/11/17 14:01:19;;;;;;;;;;;11.10;99.90;;;;;;5091226;28;20073;-76
2021/11/17 14:03:45;;;;;;;;;;;11.00;99.90;;;;;;5083781;28;19959;-75
2021/11/17 14:06:12;;;;;;;;;;;11.00;99.90;;;;;;5077785;28;20324;-75
2021/11/17 14:08:38;;;;;;;;;;;11.00;99.90;;;;;;5091296;28;20333;-75
2021/11/17 14:11:34;;;;;;;;;;;10.90;99.90;;;;;;5087642;28;19917;-76
2021/11/17 14:14:00;;;;;;;;;;;10.90;99.90;;;;;;5070470;28;19916;-75
2021/11/17 14:16:27;;;;;;;;;;;10.80;99.90;;;;;;5081962;28;20298;-75
2021/11/17 14:18:53;;;;;;;;;;;10.80;99.90;;;;;;5086395;28;20018;-74
2021/11/17 14:21:20;;;;;;;;;;;10.80;99.90;;;;;;5085749;28;19923;-88
2021/11/17 14:23:46;;;;;;;;;;;10.70;99.90;;;;;;5086020;28;19920;-84
2021/11/17 14:26:13;;;;;;;;;;;10.80;99.90;;;;;;5090277;28;19938;-75
2021/11/17 14:28:40;;;;;;;;;;;10.70;99.90;;;;;;5089189;28;20322;-75
2021/11/17 14:31:10;;;;;;;;;;;10.70;99.90;;;;;;5088171;28;19924;-75
2021/11/17 14:33:35;;;;;;;;;;;10.70;99.90;;;;;;5086779;28;19939;-75
2021/11/17 14:36:04;;;;;;;;;;;10.80;99.90;;;;;;5086721;28;20295;-75
2021/11/17 14:38:32;;;;;;;;;;;10.70;99.90;;;;;;5089397;28;19924;-75
2021/11/17 14:40:58;;;;;;;;;;;10.70;99.90;;;;;;5090730;28;19935;-75
2021/11/17 14:43:23;;;;;;;;;;;10.70;99.90;;;;;;5091343;28;20227;-75
2021/11/17 14:45:49;;;;;;;;;;;10.60;99.90;;;;;;5088882;28;20311;-76
2021/11/17 14:48:16;;;;;;;;;;;10.60;99.90;;;;;;5086102;28;20023;-75
2021/11/17 14:50:43;;;;;;;;;;;10.50;99.90;;;;;;5092429;28;19916;-75
2021/11/17 14:53:09;;;;;;;;;;;10.40;99.90;;;;;;5091965;28;19916;-75
2021/11/17 14:55:35;;;;;;;;;;;10.30;99.90;;;;;;5088937;28;19927;-75
2021/11/17 14:58:01;;;;;;;;;;;10.30;99.90;;;;;;5092569;28;19920;-75
2021/11/17 15:00:29;;;;;;;;;;;10.30;99.90;;;;;;5090420;28;19920;-76
2021/11/17 15:02:56;;;;;;;;;;;10.20;99.90;;;;;;5088427;28;19916;-76
2021/11/17 15:05:22;;;;;;;;;;;10.20;99.90;;;;;;5082351;28;19916;-76
2021/11/17 15:07:48;;;;;;;;;;;10.30;99.90;;;;;;5085941;28;20272;-82
2021/11/17 15:10:15;;;;;;;;;;;10.30;99.90;;;;;;5088960;28;20011;-76
2021/11/17 15:12:40;;;;;;;;;;;10.30;99.90;;;;;;5075620;28;20388;-76
2021/11/17 15:15:12;;;;;;;;;;;10.30;99.90;;;;;;5080013;28;19916;-76
2021/11/17 15:17:38;;;;;;;;;;;10.30;99.90;;;;;;5104336;28;19985;-76
2021/11/17 15:20:05;;;;;;;;;;;10.30;99.90;;;;;;5090008;28;19951;-75
2021/11/17 15:22:31;;;;;;;;;;;10.20;99.90;;;;;;5087972;28;20011;-85
2021/11/17 15:24:56;;;;;;;;;;;10.10;99.90;;;;;;5090144;28;20361;-76
2021/11/17 15:27:25;;;;;;;;;;;10.10;99.90;;;;;;5089230;28;20438;-89
2021/11/17 15:29:50;;;;;;;;;;;10.00;99.90;;;;;;5087414;28;19917;-86
2021/11/17 15:32:18;;;;;;;;;;;9.90;99.90;;;;;;5086897;28;19923;-75
2021/11/17 15:34:43;;;;;;;;;;;9.90;99.90;;;;;;5082475;28;20333;-76
2021/11/17 15:37:09;;;;;;;;;;;9.90;99.90;;;;;;5089157;28;19920;-88
2021/11/17 15:39:37;;;;;;;;;;;9.80;99.90;;;;;;5085994;28;19920;-77
2021/11/17 15:42:03;;;;;;;;;;;9.80;99.90;;;;;;5083820;28;20018;-75
2021/11/17 15:44:28;;;;;;;;;;;9.70;99.90;;;;;;5083332;28;20023;-76
2021/11/17 15:46:58;;;;;;;;;;;9.60;99.90;;;;;;5088251;28;19977;-75
2021/11/17 15:49:24;;;;;;;;;;;9.60;99.90;;;;;;5086286;28;20195;-87
2021/11/17 15:51:50;;;;;;;;;;;9.50;99.90;;;;;;5090808;28;20290;-75
2021/11/17 15:54:16;;;;;;;;;;;9.50;99.90;;;;;;5089012;28;19916;-76
2021/11/17 15:56:42;;;;;;;;;;;9.40;99.90;;;;;;5089683;28;19920;-88
2021/11/17 15:59:07;;;;;;;;;;;9.30;99.90;;;;;;5086496;28;19970;-76
2021/11/17 16:01:33;;;;;;;;;;;9.30;99.90;;;;;;5087699;28;20174;-76
2021/11/17 16:03:59;;;;;;;;;;;9.20;99.90;;;;;;5083593;28;19924;-76
2021/11/17 16:06:28;;;;;;;;;;;9.20;99.90;;;;;;5088389;28;19947;-76
2021/11/17 16:08:54;;;;;;;;;;;9.20;99.90;;;;;;5085882;28;19924;-76
2021/11/17 16:11:19;;;;;;;;;;;9.20;99.90;;;;;;5089386;28;19923;-76
2021/11/17 16:13:46;;;;;;;;;;;9.10;99.90;;;;;;5091377;28;19973;-77
2021/11/17 16:16:12;;;;;;;;;;;9.00;99.90;;;;;;5054439;28;19917;-76
2021/11/17 16:18:38;;;;;;;;;;;9.00;99.90;;;;;;5087078;28;19979;-77
2021/11/17 16:21:05;;;;;;;;;;;8.90;99.90;;;;;;5077569;28;19959;-86
2021/11/17 16:26:25;;;;;;;;;;;8.80;99.90;;;;;;5087356;28;20010;-77
2021/11/17 16:28:52;;;;;;;;;;;8.60;99.90;;;;;;5085060;28;20299;-76
2021/11/17 16:31:19;;;;;;;;;;;8.50;99.90;;;;;;5086491;28;19917;-77
2021/11/17 16:33:45;;;;;;;;;;;8.30;99.90;;;;;;5087892;28;20378;-77
2021/11/17 16:36:11;;;;;;;;;;;8.20;99.90;;;;;;5089979;28;19942;-76
2021/11/17 16:38:37;;;;;;;;;;;8.20;99.90;;;;;;5084938;28;20022;-76
2021/11/17 16:41:06;;;;;;;;;;;8.10;99.90;;;;;;5092355;28;19923;-77
2021/11/17 16:43:33;;;;;;;;;;;8.10;99.90;;;;;;5091427;28;19916;-76
2021/11/17 16:45:59;;;;;;;;;;;8.00;99.90;;;;;;5119336;27;20323;-76
2021/11/17 16:48:28;;;;;;;;;;;8.00;99.90;;;;;;5087987;28;20019;-77
2021/11/17 16:50:54;;;;;;;;;;;8.00;99.90;;;;;;5090386;28;19916;-77
2021/11/17 16:53:29;;;;;;;;;;;7.90;99.90;;;;;;5089326;28;20286;-76
2021/11/17 16:55:54;;;;;;;;;;;7.80;99.90;;;;;;5105941;27;19942;-79
2021/11/17 16:58:22;;;;;;;;;;;7.70;99.90;;;;;;5087758;28;19916;-77
2021/11/17 17:00:49;;;;;;;;;;;7.60;99.90;;;;;;5092611;28;19930;-77
2021/11/17 17:03:16;;;;;;;;;;;7.50;99.90;;;;;;5091891;28;19920;-77
2021/11/17 17:05:44;;;;;;;;;;;7.50;99.90;;;;;;5089301;28;19998;-76
2021/11/17 17:08:10;;;;;;;;;;;7.50;99.90;;;;;;5093807;28;19966;-76
2021/11/17 17:10:36;;;;;;;;;;;7.40;99.90;;;;;;5085126;28;19918;-78
2021/11/17 17:13:02;;;;;;;;;;;7.30;99.90;;;;;;5090774;28;20010;-77
2021/11/17 17:15:29;;;;;;;;;;;7.30;99.90;;;;;;5090526;28;19955;-77
2021/11/17 17:17:55;;;;;;;;;;;7.30;99.90;;;;;;5094717;28;19919;-77
2021/11/17 17:20:22;;;;;;;;;;;7.30;99.90;;;;;;5082326;28;19916;-76